Time;durP1;ratioP1;P1;durP2;ratioP2;P2;SDS_P1;SDS_P2;PMS_P1;PMS_P2;Temp;Humidity;BMP_temperature;BMP_pressure;BME280_temperature;BME280_humidity;BME280_pressure;Samples;Min_cycle;Max_cycle;Signal;HPM_P1;HPM_P2
2023/01/30 00:01:06;;;;;;;10.10;6.70;;;;;;;14.99;47.60;101838.94;5047394;28;20057;-34
2023/01/30 00:03:33;;;;;;;11.60;7.35;;;;;;;15.00;47.47;101836.19;5049518;28;20055;-34
2023/01/30 00:06:00;;;;;;;9.43;6.28;;;;;;;15.01;48.24;101848.56;5046385;28;20143;-34
2023/01/30 00:08:26;;;;;;;10.02;6.28;;;;;;;15.02;47.35;101836.91;5045591;28;20049;-34
2023/01/30 00:10:53;;;;;;;8.85;6.13;;;;;;;15.03;47.84;101835.97;5038189;28;20357;-34
2023/01/30 00:13:19;;;;;;;10.27;6.30;;;;;;;15.05;47.21;101817.16;5041495;28;20152;-34
2023/01/30 00:15:47;;;;;;;10.70;6.85;;;;;;;15.04;47.98;101804.78;5043780;28;20459;-34
2023/01/30 00:18:14;;;;;;;10.27;6.55;;;;;;;15.06;47.28;101811.69;5041301;28;20054;-34
2023/01/30 00:20:40;;;;;;;8.50;5.72;;;;;;;15.05;48.12;101795.78;5042581;28;20124;-34
2023/01/30 00:23:07;;;;;;;9.63;5.97;;;;;;;15.05;47.87;101803.81;5039997;28;20467;-34
2023/01/30 00:25:33;;;;;;;9.10;6.18;;;;;;;15.06;47.45;101808.16;5044231;28;20047;-34
2023/01/30 00:28:01;;;;;;;9.02;5.72;;;;;;;15.06;47.44;101802.84;5048170;28;20387;-34
2023/01/30 00:30:28;;;;;;;9.27;6.22;;;;;;;15.06;47.42;101790.34;5047893;28;20429;-37
2023/01/30 00:32:58;;;;;;;10.35;5.93;;;;;;;15.05;48.20;101790.44;5045801;28;20041;-34
2023/01/30 00:35:27;;;;;;;9.88;5.95;;;;;;;15.06;48.50;101792.16;5047661;28;20157;-34
2023/01/30 00:37:55;;;;;;;9.45;5.43;;;;;;;15.07;47.55;101788.50;5044898;28;20076;-33
2023/01/30 00:40:23;;;;;;;10.57;5.38;;;;;;;15.08;48.00;101779.56;5045559;28;20063;-33
2023/01/30 00:48:25;;;;;;;10.68;5.38;;;;;;;15.10;47.46;101763.41;5043916;28;20132;-34
2023/01/30 00:50:51;;;;;;;9.35;5.32;;;;;;;15.10;48.36;101768.75;5041630;28;20441;-34
2023/01/30 00:53:18;;;;;;;9.32;5.57;;;;;;;15.09;48.64;101762.56;5041606;28;20049;-33
2023/01/30 00:55:45;;;;;;;8.93;5.40;;;;;;;15.11;48.79;101763.28;5047088;28;20055;-34
2023/01/30 00:58:12;;;;;;;8.75;5.43;;;;;;;15.11;48.31;101755.28;5048409;28;20059;-33
2023/01/30 01:00:39;;;;;;;8.60;5.05;;;;;;;15.12;47.96;101751.66;5046003;28;20428;-33
2023/01/30 01:03:05;;;;;;;7.55;5.28;;;;;;;15.13;48.16;101737.34;5045600;28;20124;-33
2023/01/30 01:05:32;;;;;;;9.00;5.82;;;;;;;15.13;48.61;101725.81;5047050;28;20617;-33
2023/01/30 01:07:59;;;;;;;8.23;5.40;;;;;;;15.14;49.08;101733.69;5047178;28;20300;-34
2023/01/30 01:10:25;;;;;;;8.43;5.30;;;;;;;15.14;49.12;101720.34;5046864;28;20087;-34
2023/01/30 01:12:52;;;;;;;7.30;5.05;;;;;;;15.15;48.83;101718.53;5041869;28;20071;-34
2023/01/30 01:15:20;;;;;;;7.70;5.53;;;;;;;15.15;49.30;101716.72;5045944;28;20053;-33
2023/01/30 01:17:48;;;;;;;9.10;4.90;;;;;;;15.16;48.98;101705.09;5048404;28;20112;-34
2023/01/30 01:20:16;;;;;;;8.55;5.03;;;;;;;15.17;48.69;101706.78;5045970;28;20060;-33
2023/01/30 01:22:42;;;;;;;8.95;5.50;;;;;;;15.18;48.74;101704.97;5047914;28;20054;-34
2023/01/30 01:25:09;;;;;;;9.40;5.25;;;;;;;15.18;49.23;101700.47;5047440;28;20052;-36
2023/01/30 01:27:37;;;;;;;7.57;4.78;;;;;;;15.18;49.12;101703.13;5047308;28;20148;-34
2023/01/30 01:30:04;;;;;;;8.90;4.63;;;;;;;15.19;48.97;101696.81;5047764;28;20068;-33
2023/01/30 01:32:31;;;;;;;8.57;5.55;;;;;;;15.20;49.17;101692.38;5048490;28;20045;-35
2023/01/30 01:34:58;;;;;;;7.53;5.15;;;;;;;15.21;49.08;101694.06;5047593;28;20060;-34
2023/01/30 01:37:24;;;;;;;7.15;4.28;;;;;;;15.20;49.41;101700.38;5046445;28;20511;-33
2023/01/30 01:42:38;;;;;;;10.55;5.32;;;;;;;15.21;49.10;101694.91;5050619;28;20051;-33
2023/01/30 01:45:21;;;;;;;9.85;5.07;;;;;;;15.21;49.06;101697.56;5049652;28;20428;-34
2023/01/30 01:47:59;;;;;;;8.43;4.47;;;;;;;15.21;49.08;101702.91;5047243;28;20056;-34
2023/01/30 01:50:37;;;;;;;6.85;4.40;;;;;;;15.23;49.15;101705.47;5048231;28;20052;-34
2023/01/30 01:53:05;;;;;;;9.00;4.85;;;;;;;15.22;49.44;101699.28;5048718;28;20432;-34
2023/01/30 01:55:31;;;;;;;8.20;4.20;;;;;;;15.24;49.34;101696.50;5044849;28;20424;-34
2023/01/30 01:58:08;;;;;;;7.10;4.40;;;;;;;15.23;49.77;101692.09;5046833;28;20084;-33
2023/01/30 02:00:35;;;;;;;7.35;4.40;;;;;;;15.24;49.21;101684.00;5050859;28;20049;-33
2023/01/30 02:03:05;;;;;;;7.00;4.40;;;;;;;15.24;49.53;101691.16;5049016;28;20055;-35
2023/01/30 02:05:41;;;;;;;7.43;4.35;;;;;;;15.24;49.62;101692.00;5045448;28;20059;-34
2023/01/30 02:08:12;;;;;;;6.18;4.10;;;;;;;15.23;49.19;101700.13;5047587;28;20040;-34
2023/01/30 02:11:08;;;;;;;6.40;3.90;;;;;;;15.21;49.48;101689.56;5046457;28;20357;-34
2023/01/30 02:13:35;;;;;;;9.63;4.70;;;;;;;15.25;49.46;101691.03;5045859;28;20136;-34
2023/01/30 02:16:03;;;;;;;6.18;4.10;;;;;;;15.23;49.81;101684.94;5044150;28;20369;-34
2023/01/30 02:18:33;;;;;;;8.98;3.90;;;;;;;15.24;50.14;101681.34;5044628;28;20056;-34
2023/01/30 02:21:09;;;;;;;6.95;3.80;;;;;;;15.24;50.08;101677.81;5044665;28;20041;-34
2023/01/30 02:23:54;;;;;;;7.40;3.60;;;;;;;15.25;50.08;101682.19;5043417;28;20127;-34
2023/01/30 02:27:04;;;;;;;6.85;4.03;;;;;;;15.22;50.55;101677.91;5047303;28;20439;-34
2023/01/30 02:30:01;;;;;;;7.63;4.40;;;;;;;15.24;49.96;101681.34;5044404;28;20048;-35
2023/01/30 02:33:07;;;;;;;8.18;4.22;;;;;;;15.24;50.06;101680.47;5042186;28;20045;-34
2023/01/30 02:35:54;;;;;;;6.57;3.65;;;;;;;15.26;50.23;101683.88;5042511;28;20051;-34
2023/01/30 02:38:32;;;;;;;6.00;3.63;;;;;;;15.26;50.02;101666.03;5041070;28;20387;-33
2023/01/30 02:41:13;;;;;;;6.07;3.33;;;;;;;15.26;50.35;101667.84;5043933;28;20069;-34
2023/01/30 02:43:40;;;;;;;6.03;3.75;;;;;;;15.28;49.68;101674.78;5043803;28;20345;-36
2023/01/30 02:46:28;;;;;;;7.05;3.60;;;;;;;15.28;49.47;101666.78;5044621;28;20135;-37
2023/01/30 02:49:13;;;;;;;6.18;3.10;;;;;;;15.28;50.48;101672.13;5045344;28;20337;-34
2023/01/30 02:51:42;;;;;;;5.68;3.17;;;;;;;15.30;49.31;101659.50;5044325;28;20047;-33
2023/01/30 02:54:11;;;;;;;5.38;3.55;;;;;;;15.30;50.35;101670.16;5047397;28;20064;-34
2023/01/30 02:56:52;;;;;;;7.00;3.30;;;;;;;15.31;50.52;101665.69;5050164;28;20063;-33
2023/01/30 02:59:36;;;;;;;5.30;3.28;;;;;;;15.30;49.75;101670.16;5048262;28;20405;-38
2023/01/30 03:02:23;;;;;;;6.30;3.40;;;;;;;15.32;49.94;101664.72;5047233;28;20135;-34
2023/01/30 03:05:17;;;;;;;5.65;3.30;;;;;;;15.31;50.86;101655.84;5047619;28;20505;-34
2023/01/30 03:08:07;;;;;;;5.65;3.28;;;;;;;15.31;49.90;101655.84;5046332;28;20074;-34
2023/01/30 03:10:41;;;;;;;5.85;3.10;;;;;;;15.31;50.71;101650.50;5046835;28;20392;-35
2023/01/30 03:13:18;;;;;;;5.80;3.25;;;;;;;15.31;50.82;101641.63;5048654;28;20048;-34
2023/01/30 03:15:53;;;;;;;7.47;3.50;;;;;;;15.33;50.27;101638.88;5045902;28;20432;-34
2023/01/30 03:18:20;;;;;;;7.80;2.83;;;;;;;15.34;49.99;101628.06;5043021;28;20071;-34
2023/01/30 03:20:47;;;;;;;4.30;2.42;;;;;;;15.33;50.33;101638.88;5047061;28;20048;-34
2023/01/30 03:23:14;;;;;;;6.78;3.22;;;;;;;15.34;50.88;101637.91;5048987;28;20139;-34
2023/01/30 03:25:42;;;;;;;7.38;2.67;;;;;;;15.33;49.96;101637.03;5046786;28;20349;-34
2023/01/30 03:28:11;;;;;;;5.68;2.97;;;;;;;15.34;50.41;101635.22;5043833;28;20391;-34
2023/01/30 03:30:38;;;;;;;5.03;2.55;;;;;;;15.36;50.01;101641.31;5043905;28;20045;-34
2023/01/30 03:33:04;;;;;;;4.60;2.45;;;;;;;15.35;50.25;101637.75;5041516;28;20139;-35
2023/01/30 03:35:31;;;;;;;6.97;2.55;;;;;;;15.36;51.22;101641.31;5041717;28;20047;-34
2023/01/30 03:37:58;;;;;;;5.53;2.60;;;;;;;15.36;51.16;101638.66;5044335;28;20041;-34
2023/01/30 03:40:24;;;;;;;5.45;2.42;;;;;;;15.37;50.64;101643.84;5043545;28;20056;-34
2023/01/30 03:42:51;;;;;;;6.20;2.65;;;;;;;15.36;50.19;101636.81;5043856;28;20429;-35
2023/01/30 03:45:17;;;;;;;4.80;2.55;;;;;;;15.36;51.06;101635.97;5040626;28;20437;-34
2023/01/30 03:47:44;;;;;;;6.97;2.70;;;;;;;15.37;50.35;101624.31;5041630;28;20151;-33
2023/01/30 03:50:12;;;;;;;5.18;2.33;;;;;;;15.36;50.60;101627.97;5040599;28;20057;-34
2023/01/30 03:52:38;;;;;;;5.93;2.47;;;;;;;15.37;50.57;101637.66;5042315;28;20053;-35
2023/01/30 03:55:05;;;;;;;4.90;2.25;;;;;;;15.37;50.62;101624.31;5037598;28;20056;-33
2023/01/30 03:57:32;;;;;;;6.00;2.58;;;;;;;15.36;51.43;101612.78;5041442;28;20049;-33
2023/01/30 03:59:58;;;;;;;5.97;2.75;;;;;;;15.38;50.34;101626.00;5047533;28;20348;-33
2023/01/30 04:02:25;;;;;;;5.85;2.20;;;;;;;15.37;50.93;101625.16;5043759;28;20048;-33
2023/01/30 04:04:52;;;;;;;4.47;2.40;;;;;;;15.36;50.77;101610.09;5045962;28;20054;-34
2023/01/30 04:07:19;;;;;;;3.53;1.90;;;;;;;15.38;51.11;101618.84;5046070;28;20053;-33
2023/01/30 04:09:45;;;;;;;5.38;2.40;;;;;;;15.38;50.98;101616.16;5041374;28;20140;-33
2023/01/30 04:12:12;;;;;;;6.47;2.30;;;;;;;15.37;51.07;101617.16;5046908;28;20056;-33
2023/01/30 04:14:39;;;;;;;4.65;2.40;;;;;;;15.38;50.95;101618.00;5048326;28;20051;-34
2023/01/30 04:17:05;;;;;;;6.22;2.30;;;;;;;15.39;51.08;101625.03;5047193;28;20060;-34
2023/01/30 04:19:32;;;;;;;5.78;2.55;;;;;;;15.39;50.65;101643.72;5047231;28;20055;-34
2023/01/30 04:21:59;;;;;;;5.80;2.10;;;;;;;15.40;51.49;101645.47;5051109;28;20127;-33
2023/01/30 04:24:25;;;;;;;8.05;2.47;;;;;;;15.39;51.25;101649.06;5044455;28;20061;-33
2023/01/30 04:26:52;;;;;;;5.90;2.17;;;;;;;15.39;50.79;101641.06;5045592;28;20049;-33
2023/01/30 04:29:18;;;;;;;5.25;2.17;;;;;;;15.38;50.63;101629.53;5048446;28;20347;-34
2023/01/30 04:31:45;;;;;;;5.45;2.33;;;;;;;15.38;51.36;101640.22;5044356;28;20045;-33
2023/01/30 04:34:11;;;;;;;6.15;2.60;;;;;;;15.37;51.21;101643.84;5044933;28;20132;-33
2023/01/30 04:36:39;;;;;;;4.53;2.22;;;;;;;15.38;50.68;101655.38;5045512;28;20053;-33
2023/01/30 04:39:05;;;;;;;7.85;2.25;;;;;;;15.38;51.51;101653.56;5046869;28;20353;-33
2023/01/30 04:41:32;;;;;;;5.75;2.13;;;;;;;15.38;51.35;101653.56;5040883;28;20049;-34
2023/01/30 04:43:58;;;;;;;3.55;2.03;;;;;;;15.39;50.83;101668.63;5047376;28;20052;-33
2023/01/30 04:46:25;;;;;;;6.95;2.10;;;;;;;15.40;50.77;101678.34;5045656;28;20053;-33
2023/01/30 04:48:51;;;;;;;4.25;1.58;;;;;;;15.40;50.83;101669.50;5045844;28;20049;-34
2023/01/30 04:51:18;;;;;;;5.15;1.80;;;;;;;15.41;51.42;101669.38;5043263;28;20128;-33
2023/01/30 04:53:44;;;;;;;6.80;1.80;;;;;;;15.42;50.77;101663.06;5045994;28;20365;-34
2023/01/30 04:56:11;;;;;;;5.13;1.67;;;;;;;15.42;51.36;101657.72;5044317;28;20103;-33
2023/01/30 04:58:38;;;;;;;8.65;2.55;;;;;;;15.43;51.28;101658.56;5047473;28;20053;-33
2023/01/30 05:01:12;;;;;;;11.15;3.35;;;;;;;15.44;51.78;101654.94;5046331;28;20172;-33
2023/01/30 05:03:39;;;;;;;15.23;3.35;;;;;;;15.44;51.39;101655.78;5043044;28;20045;-33
2023/01/30 05:06:05;;;;;;;12.40;5.20;;;;;;;15.44;52.09;101658.47;5045490;28;20608;-33
2023/01/30 05:08:32;;;;;;;17.27;5.45;;;;;;;15.44;51.25;101655.78;5044081;28;20049;-35
2023/01/30 05:10:58;;;;;;;19.23;7.00;;;;;;;15.45;51.81;101665.50;5045205;28;20067;-33
2023/01/30 05:13:25;;;;;;;21.08;6.63;;;;;;;15.45;51.02;101656.63;5042251;28;20059;-33
2023/01/30 05:15:52;;;;;;;18.30;6.82;;;;;;;15.46;51.55;101661.00;5043934;28;20053;-33
2023/01/30 05:18:18;;;;;;;26.73;7.43;;;;;;;15.45;52.05;101665.50;5045755;28;20049;-33
2023/01/30 05:20:45;;;;;;;25.60;9.32;;;;;;;15.45;52.20;101660.16;5043871;28;20049;-34
2023/01/30 05:23:11;;;;;;;28.58;10.15;;;;;;;15.45;51.23;101656.63;5046522;28;20340;-33
2023/01/30 05:25:38;;;;;;;28.25;11.23;;;;;;;15.45;51.66;101659.31;5048588;28;20052;-34
2023/01/30 05:28:04;;;;;;;23.63;10.98;;;;;;;15.46;51.96;101658.34;5041821;28;20056;-37
2023/01/30 05:30:31;;;;;;;24.23;11.90;;;;;;;15.44;52.25;101673.63;5050356;28;20045;-33
2023/01/30 05:32:57;;;;;;;28.23;12.05;;;;;;;15.44;51.69;101668.28;5049193;28;20068;-33
2023/01/30 05:35:24;;;;;;;23.67;11.93;;;;;;;15.44;51.88;101681.66;5043159;28;20458;-34
2023/01/30 05:37:51;;;;;;;29.00;12.45;;;;;;;15.44;51.35;101682.50;5047453;28;20064;-33
2023/01/30 05:40:18;;;;;;;25.33;12.43;;;;;;;15.42;52.09;101695.09;5047343;28;20061;-34
2023/01/30 05:42:44;;;;;;;28.17;12.82;;;;;;;15.42;51.52;101689.75;5041610;28;20068;-33
2023/01/30 05:45:11;;;;;;;30.80;13.65;;;;;;;15.42;51.84;101695.09;5041928;28;20041;-36
2023/01/30 05:47:37;;;;;;;28.73;13.65;;;;;;;15.42;51.96;101694.25;5043521;28;20049;-34
2023/01/30 05:50:04;;;;;;;26.67;12.70;;;;;;;15.41;51.08;101700.56;5047861;28;20053;-34
2023/01/30 05:52:31;;;;;;;32.65;14.88;;;;;;;15.40;51.93;101699.72;5045760;28;20049;-34
2023/01/30 05:54:57;;;;;;;26.73;13.10;;;;;;;15.40;51.28;101698.88;5041375;28;20055;-33
2023/01/30 05:57:24;;;;;;;24.13;12.43;;;;;;;15.40;51.07;101690.88;5044292;28;20085;-34
2023/01/30 05:59:50;;;;;;;26.95;13.32;;;;;;;15.39;52.08;101694.47;5046948;28;20340;-33
2023/01/30 06:02:17;;;;;;;27.40;13.98;;;;;;;15.38;51.48;101707.00;5043856;28;20055;-34
2023/01/30 06:04:43;;;;;;;25.52;11.93;;;;;;;15.38;51.99;101703.47;5045777;28;20053;-34
2023/01/30 06:07:10;;;;;;;24.30;12.98;;;;;;;15.38;50.90;101698.13;5045782;28;20076;-34
2023/01/30 06:09:36;;;;;;;26.30;12.27;;;;;;;15.36;50.78;101684.91;5045410;28;20053;-34
2023/01/30 06:12:03;;;;;;;26.65;13.50;;;;;;;15.37;51.85;101691.09;5046840;28;20045;-33
2023/01/30 06:14:29;;;;;;;26.83;12.93;;;;;;;15.36;51.03;101692.91;5045397;28;20067;-34
2023/01/30 06:16:56;;;;;;;24.85;12.60;;;;;;;15.37;51.94;101699.09;5043266;28;20087;-34
2023/01/30 06:19:23;;;;;;;24.00;12.77;;;;;;;15.36;51.20;101698.25;5043479;28;20376;-34
2023/01/30 06:21:49;;;;;;;27.00;12.60;;;;;;;15.38;50.94;101711.50;5044883;28;20041;-34
2023/01/30 06:24:16;;;;;;;23.65;11.85;;;;;;;15.37;50.90;101709.78;5045855;28;20049;-34
2023/01/30 06:26:43;;;;;;;25.60;12.13;;;;;;;15.38;51.89;101706.13;5043602;28;20045;-34
2023/01/30 06:29:09;;;;;;;21.42;11.45;;;;;;;15.38;50.96;101706.13;5041664;28;20143;-34
2023/01/30 06:31:36;;;;;;;19.10;10.75;;;;;;;15.37;51.58;101701.78;5043487;28;20065;-34
2023/01/30 06:34:02;;;;;;;22.30;12.05;;;;;;;15.37;51.94;101701.78;5040818;28;20049;-34
2023/01/30 06:36:29;;;;;;;22.02;11.35;;;;;;;15.36;51.61;101716.09;5038155;28;20057;-34
2023/01/30 06:38:55;;;;;;;22.42;11.40;;;;;;;15.36;51.75;101705.41;5043987;28;20053;-34
2023/01/30 06:41:22;;;;;;;20.17;9.80;;;;;;;15.36;51.65;101708.09;5043635;28;20049;-34
2023/01/30 06:43:49;;;;;;;21.38;10.30;;;;;;;15.35;52.02;101711.72;5045397;28;20338;-35
2023/01/30 06:46:15;;;;;;;27.58;11.25;;;;;;;15.34;51.12;101708.19;5047278;28;20124;-34
2023/01/30 06:48:42;;;;;;;21.90;10.02;;;;;;;15.34;51.49;101716.19;5043506;28;20447;-34
2023/01/30 06:51:08;;;;;;;18.10;9.93;;;;;;;15.33;51.67;101717.19;5048501;28;20371;-33
2023/01/30 06:53:35;;;;;;;19.75;10.43;;;;;;;15.32;51.32;101728.84;5044802;28;20333;-34
2023/01/30 06:56:02;;;;;;;17.80;9.45;;;;;;;15.31;51.86;101722.63;5042235;28;20059;-34
2023/01/30 06:58:29;;;;;;;21.17;10.32;;;;;;;15.31;50.95;101727.09;5045921;28;20074;-42
2023/01/30 07:00:56;;;;;;;17.67;9.65;;;;;;;15.29;51.20;101727.22;5046585;28;20051;-34
2023/01/30 07:03:22;;;;;;;20.13;9.05;;;;;;;15.29;51.44;101711.22;5044663;28;20095;-34
2023/01/30 07:05:49;;;;;;;16.40;8.68;;;;;;;15.30;51.79;101731.59;5041209;28;20437;-34
2023/01/30 07:08:16;;;;;;;17.00;8.63;;;;;;;15.29;51.46;101729.91;5045958;28;20058;-34
2023/01/30 07:10:43;;;;;;;18.42;8.13;;;;;;;15.30;51.74;101725.41;5043781;28;20134;-34
2023/01/30 07:13:11;;;;;;;16.38;7.95;;;;;;;15.27;51.48;101731.81;5044030;28;20100;-34
2023/01/30 07:15:37;;;;;;;18.17;8.15;;;;;;;15.29;52.01;101745.09;5044227;28;20053;-34
2023/01/30 07:18:04;;;;;;;16.00;7.70;;;;;;;15.28;51.21;101756.75;5042347;28;20101;-34
2023/01/30 07:20:31;;;;;;;18.40;7.85;;;;;;;15.27;51.82;101755.00;5041746;28;20052;-34
2023/01/30 07:22:57;;;;;;;16.50;7.28;;;;;;;15.27;51.65;101760.34;5038878;28;20046;-34
2023/01/30 07:25:26;;;;;;;14.60;7.07;;;;;;;15.27;51.33;101761.19;5041995;28;20053;-34
2023/01/30 07:28:00;;;;;;;17.83;7.63;;;;;;;15.27;51.09;101757.69;5042835;28;20048;-34
2023/01/30 07:30:29;;;;;;;15.25;7.13;;;;;;;15.26;50.95;101756.84;5044463;28;20436;-37
2023/01/30 07:32:57;;;;;;;13.38;6.95;;;;;;;15.26;51.88;101764.00;5043336;28;20095;-37
2023/01/30 07:35:25;;;;;;;15.80;7.40;;;;;;;15.26;51.19;101769.34;5043013;28;20353;-37
2023/01/30 07:37:52;;;;;;;14.38;6.85;;;;;;;15.26;51.69;101759.50;5045175;28;20065;-34
2023/01/30 07:40:20;;;;;;;14.27;6.80;;;;;;;15.26;51.90;101766.66;5042872;28;20432;-34
2023/01/30 07:43:02;;;;;;;13.55;6.57;;;;;;;15.26;51.89;101774.69;5043453;28;20041;-34
2023/01/30 07:45:38;;;;;;;15.50;6.20;;;;;;;15.27;51.99;101771.88;5042515;28;20084;-34
2023/01/30 07:48:05;;;;;;;16.95;6.95;;;;;;;15.29;51.12;101766.44;5042240;28;20137;-34
2023/01/30 07:50:32;;;;;;;13.88;5.90;;;;;;;15.30;51.79;101773.50;5042145;28;20428;-34
2023/01/30 07:53:01;;;;;;;14.95;6.32;;;;;;;15.31;50.82;101752.00;5043068;28;20041;-33
2023/01/30 07:55:27;;;;;;;17.88;5.88;;;;;;;15.33;51.06;101754.56;5040797;28;20054;-35
2023/01/30 07:57:54;;;;;;;12.20;6.57;;;;;;;15.33;50.84;101759.91;5044776;28;20061;-37
2023/01/30 08:00:20;;;;;;;14.32;5.40;;;;;;;15.35;51.81;101767.81;5044842;28;20080;-34
2023/01/30 08:02:47;;;;;;;14.05;6.03;;;;;;;15.36;51.68;101774.88;5041963;28;20041;-34
2023/01/30 08:05:14;;;;;;;13.45;5.15;;;;;;;15.37;51.07;101784.59;5043235;28;20298;-33
2023/01/30 08:07:40;;;;;;;11.52;5.47;;;;;;;15.38;51.65;101780.94;5043568;28;20041;-33
2023/01/30 08:10:07;;;;;;;9.23;4.55;;;;;;;15.38;51.90;101771.09;5037075;28;20049;-33
2023/01/30 08:12:38;;;;;;;14.35;5.35;;;;;;;15.40;51.83;101771.84;5041582;28;20618;-36
2023/01/30 08:15:06;;;;;;;11.05;5.28;;;;;;;15.43;51.34;101765.41;5044952;28;20059;-33
2023/01/30 08:17:33;;;;;;;12.20;4.55;;;;;;;15.44;50.74;101775.16;5041520;28;20074;-33
2023/01/30 08:20:00;;;;;;;9.82;4.57;;;;;;;15.45;50.77;101788.38;5042029;28;20448;-33
2023/01/30 08:22:27;;;;;;;12.40;4.70;;;;;;;15.47;50.96;101781.09;5047553;28;20047;-33
2023/01/30 08:24:54;;;;;;;9.90;4.65;;;;;;;15.48;50.72;101793.50;5046424;28;20064;-34
2023/01/30 08:27:20;;;;;;;12.43;4.13;;;;;;;15.50;50.49;101790.72;5044006;28;20050;-35
2023/01/30 08:29:47;;;;;;;14.80;5.35;;;;;;;15.50;51.64;101794.22;5043313;28;20221;-34
2023/01/30 08:32:13;;;;;;;13.68;4.63;;;;;;;15.52;50.77;101794.13;5044442;28;20048;-34
2023/01/30 08:34:41;;;;;;;10.35;4.07;;;;;;;15.52;51.69;101815.50;5044171;28;20067;-36
2023/01/30 08:37:07;;;;;;;9.20;3.85;;;;;;;15.53;51.45;101799.34;5047121;28;20455;-34
2023/01/30 08:39:34;;;;;;;10.00;4.07;;;;;;;15.55;51.12;101816.13;5048162;28;20529;-35
2023/01/30 08:42:02;;;;;;;12.75;4.40;;;;;;;15.56;50.53;101822.34;5041827;28;20048;-34
2023/01/30 08:44:29;;;;;;;10.57;4.03;;;;;;;15.57;50.96;101833.88;5049031;28;20059;-34
2023/01/30 08:46:55;;;;;;;12.32;4.00;;;;;;;15.57;51.12;101845.41;5050006;28;20052;-34
2023/01/30 08:49:22;;;;;;;9.20;4.03;;;;;;;15.58;51.33;101835.56;5043580;28;20052;-34
2023/01/30 08:51:49;;;;;;;13.98;4.40;;;;;;;15.57;51.33;101840.06;5043357;28;20042;-34
2023/01/30 08:54:15;;;;;;;11.18;4.13;;;;;;;15.57;50.99;101841.88;5046954;28;20045;-34
2023/01/30 08:56:42;;;;;;;13.15;3.90;;;;;;;15.57;50.80;101847.22;5044740;28;20124;-34
2023/01/30 08:59:08;;;;;;;10.18;3.65;;;;;;;15.56;51.30;101843.72;5045881;28;20041;-34
2023/01/30 09:01:36;;;;;;;14.00;4.03;;;;;;;15.55;51.25;101856.19;5044113;28;20045;-34
2023/01/30 09:04:03;;;;;;;12.52;3.50;;;;;;;15.56;51.31;101854.41;5040805;28;20061;-35
2023/01/30 09:06:30;;;;;;;9.50;3.60;;;;;;;15.54;50.35;101845.63;5042078;28;20049;-35
2023/01/30 09:08:58;;;;;;;7.47;3.03;;;;;;;15.54;50.44;101848.31;5035345;28;20351;-34
2023/01/30 09:11:24;;;;;;;10.50;3.40;;;;;;;15.53;51.04;101852.78;5041604;28;20052;-34
2023/01/30 09:13:51;;;;;;;10.45;3.47;;;;;;;15.55;51.21;101850.00;5040503;28;20475;-34
2023/01/30 09:16:17;;;;;;;10.05;3.80;;;;;;;15.53;51.16;101847.44;5041869;28;20060;-33
2023/01/30 09:18:44;;;;;;;10.57;3.50;;;;;;;15.55;50.28;101845.50;5043812;28;20057;-34
2023/01/30 09:21:12;;;;;;;10.52;3.50;;;;;;;15.54;51.18;101857.16;5038861;28;20049;-35
2023/01/30 09:23:39;;;;;;;12.50;3.60;;;;;;;15.54;50.52;101872.34;5044750;28;20144;-34
2023/01/30 09:26:06;;;;;;;9.60;3.13;;;;;;;15.54;50.45;101864.34;5041584;28;20053;-34
2023/01/30 09:28:33;;;;;;;9.95;3.30;;;;;;;15.55;50.37;101866.03;5042102;28;20045;-34
2023/01/30 09:31:00;;;;;;;13.00;3.40;;;;;;;15.55;51.27;101858.00;5042104;28;20143;-34
2023/01/30 09:33:27;;;;;;;11.25;3.25;;;;;;;15.56;50.39;101851.72;5041507;28;20072;-33
2023/01/30 09:35:55;;;;;;;14.25;3.72;;;;;;;15.55;51.01;101868.69;5044412;28;20456;-34
2023/01/30 09:38:21;;;;;;;8.80;3.22;;;;;;;15.57;51.33;101873.97;5039573;28;20056;-34
2023/01/30 09:41:27;;;;;;;10.68;3.22;;;;;;;15.58;50.95;101878.31;5041326;28;20064;-34
2023/01/30 09:44:14;;;;;;;11.95;3.17;;;;;;;15.59;51.24;101883.53;5039161;28;20041;-34
2023/01/30 09:46:55;;;;;;;11.05;2.83;;;;;;;15.60;50.78;101900.44;5046635;28;20128;-34
2023/01/30 09:49:55;;;;;;;9.15;2.65;;;;;;;15.61;50.10;101894.13;5047071;28;20331;-34
2023/01/30 09:52:33;;;;;;;13.38;3.00;;;;;;;15.61;50.02;101900.34;5047493;28;20051;-34
2023/01/30 09:55:42;;;;;;;8.65;3.10;;;;;;;15.61;50.14;101907.50;5041785;28;20058;-34
2023/01/30 09:58:21;;;;;;;10.45;3.00;;;;;;;15.62;50.97;101920.75;4994224;28;20498;-36
2023/01/30 10:00:51;;;;;;;8.93;2.95;;;;;;;15.64;50.16;101923.28;4991280;28;20054;-35
2023/01/30 10:03:23;;;;;;;9.68;2.85;;;;;;;15.63;50.46;101925.13;5021021;28;20131;-34
2023/01/30 10:06:04;;;;;;;8.27;2.83;;;;;;;15.63;50.05;101922.44;5037206;28;20080;-34
2023/01/30 10:08:52;;;;;;;13.63;3.55;;;;;;;15.63;50.04;101925.13;5035954;28;20060;-34
2023/01/30 10:11:22;;;;;;;8.90;2.97;;;;;;;15.63;50.92;101914.44;5041123;28;20045;-34
2023/01/30 10:14:03;;;;;;;9.38;2.83;;;;;;;15.61;51.13;101924.38;5039767;28;20053;-33
2023/01/30 10:16:48;;;;;;;11.38;2.38;;;;;;;15.63;50.89;101926.94;5041216;28;20045;-33
2023/01/30 10:19:33;;;;;;;9.75;2.80;;;;;;;15.63;50.11;101930.47;5040296;28;20140;-33
2023/01/30 10:22:29;;;;;;;7.47;2.75;;;;;;;15.64;51.24;101931.31;5039673;28;20044;-34
2023/01/30 10:25:05;;;;;;;;;;;;;;;15.63;50.13;101932.28;5040110;28;20042;-37
2023/01/30 10:27:33;;;;;;;10.40;2.58;;;;;;;15.67;49.96;101942.66;5044053;28;19928;-34
2023/01/30 10:30:06;;;;;;;10.40;3.45;;;;;;;15.68;51.14;101948.91;5040029;28;20061;-34
2023/01/30 10:32:35;;;;;;;7.70;2.73;;;;;;;15.69;49.91;101937.22;5040750;28;20140;-34
2023/01/30 10:35:15;;;;;;;9.13;2.95;;;;;;;15.68;50.67;101947.06;5040429;28;20064;-35
2023/01/30 10:37:50;;;;;;;7.43;2.33;;;;;;;15.69;50.04;101943.41;5036524;28;20084;-33
2023/01/30 10:40:41;;;;;;;10.25;2.85;;;;;;;15.71;50.72;101951.31;4998088;28;1081106;-36
2023/01/30 10:43:19;;;;;;;10.73;2.67;;;;;;;15.70;49.74;101954.97;5037340;28;20041;-34
2023/01/30 10:45:51;;;;;;;7.97;2.38;;;;;;;15.70;50.03;101953.16;5038625;28;20053;-34
2023/01/30 10:48:21;;;;;;;8.63;2.80;;;;;;;15.70;50.76;101974.53;5038505;28;20053;-34
2023/01/30 10:51:04;;;;;;;12.02;3.00;;;;;;;15.71;49.66;101972.69;5041435;28;20060;-34
2023/01/30 10:53:46;;;;;;;11.57;2.85;;;;;;;15.71;49.63;101978.03;5040646;28;20128;-34
2023/01/30 10:56:24;;;;;;;8.32;2.83;;;;;;;15.70;50.81;101969.19;5045499;28;20055;-34
2023/01/30 10:59:02;;;;;;;11.00;2.50;;;;;;;15.72;50.18;101961.06;5040971;28;20045;-34
2023/01/30 11:01:36;;;;;;;13.85;2.83;;;;;;;15.72;49.74;101959.25;5038073;28;20059;-35
2023/01/30 11:04:13;;;;;;;11.15;2.67;;;;;;;15.74;50.49;101956.44;5038423;28;20049;-34
2023/01/30 11:06:41;;;;;;;11.70;3.10;;;;;;;15.78;50.03;101948.09;5039101;28;20049;-35
2023/01/30 11:09:07;;;;;;;7.72;2.28;;;;;;;15.83;50.20;101949.56;5040583;28;20053;-35
2023/01/30 11:11:48;;;;;;;8.65;2.30;;;;;;;15.85;49.49;101959.19;5042256;28;20052;-34
2023/01/30 11:14:15;;;;;;;7.85;2.47;;;;;;;15.92;50.39;101951.56;5043046;28;20077;-34
2023/01/30 11:16:57;;;;;;;9.60;2.92;;;;;;;15.96;50.12;101951.25;5045519;28;20056;-34
2023/01/30 11:19:33;;;;;;;9.65;2.75;;;;;;;16.03;49.54;101959.66;5041589;28;20050;-35
2023/01/30 11:22:03;;;;;;;10.85;2.60;;;;;;;16.07;49.46;101958.47;5044697;28;20049;-34
2023/01/30 11:24:37;;;;;;;12.82;3.28;;;;;;;16.11;50.29;101962.63;5040766;28;20345;-34
2023/01/30 11:27:10;;;;;;;14.10;3.17;;;;;;;16.16;49.83;101959.59;5042420;28;20041;-34
2023/01/30 11:29:38;;;;;;;8.65;2.80;;;;;;;16.20;50.36;101953.94;5041195;28;20041;-35
2023/01/30 11:32:11;;;;;;;12.55;2.78;;;;;;;16.24;49.44;101954.53;5041426;28;20060;-34
2023/01/30 11:34:41;;;;;;;10.48;3.28;;;;;;;16.27;49.39;101962.34;5042049;28;20049;-34
2023/01/30 11:37:26;;;;;;;9.95;2.60;;;;;;;16.32;50.17;101953.94;5042736;28;20458;-34
2023/01/30 11:39:52;;;;;;;;;;;;;;;16.33;49.93;101951.19;5043510;28;20056;-34
2023/01/30 11:42:29;;;;;;;8.00;3.05;;;;;;;16.38;49.44;101961.53;5045518;28;19920;-34
2023/01/30 11:44:59;;;;;;;10.45;2.40;;;;;;;16.41;48.92;101958.63;5040722;28;20388;-35